Time;durP1;ratioP1;P1;durP2;ratioP2;P2;SDS_P1;SDS_P2;PMS_P1;PMS_P2;Temp;Humidity;BMP_temperature;BMP_pressure;BME280_temperature;BME280_humidity;BME280_pressure;Samples;Min_cycle;Max_cycle;Signal;HPM_P1;HPM_P2
2022/01/25 00:10:14;;;;;;;38.87;27.10;;;;;;;1.44;85.10;98165.56;5016461;28;20175;-71
2022/01/25 00:15:52;;;;;;;38.53;26.70;;;;;;;1.51;84.90;98159.25;5010144;28;20224;-71
2022/01/25 00:26:33;;;;;;;42.83;28.37;;;;;;;1.32;85.25;98159.00;5017622;28;20209;-69
2022/01/25 00:29:06;;;;;;;40.23;28.10;;;;;;;1.41;85.16;98161.31;5019196;28;20294;-70
2022/01/25 00:31:34;;;;;;;38.17;27.23;;;;;;;1.37;85.38;98164.06;5019288;28;20217;-70
2022/01/25 00:34:02;;;;;;;41.70;28.20;;;;;;;1.37;85.66;98158.84;5012938;28;20675;-69
2022/01/25 00:36:29;;;;;;;38.50;27.17;;;;;;;1.47;84.73;98160.25;5012557;28;20625;-69
2022/01/25 00:38:56;;;;;;;39.00;26.30;;;;;;;1.56;83.78;98159.94;5018921;28;20220;-70
2022/01/25 00:41:24;;;;;;;38.10;25.60;;;;;;;1.49;83.41;98164.50;5019324;28;20222;-70
2022/01/25 00:43:53;;;;;;;41.57;27.90;;;;;;;1.55;83.18;98160.00;5024702;28;20219;-69
2022/01/25 00:46:21;;;;;;;38.63;27.67;;;;;;;1.40;84.11;98159.59;5011840;28;20220;-69
2022/01/25 00:48:52;;;;;;;41.43;27.70;;;;;;;1.35;84.84;98158.03;5018882;28;20208;-70
2022/01/25 00:51:56;;;;;;;37.10;26.30;;;;;;;1.40;84.64;98159.59;5018718;28;20209;-70
2022/01/25 00:54:14;;;;;;;37.43;27.10;;;;;;;1.42;84.21;98156.94;5009688;28;20688;-70
2022/01/25 00:56:44;;;;;;;39.43;26.57;;;;;;;1.43;83.65;98148.22;5012956;28;20216;-70
2022/01/25 00:59:14;;;;;;;37.73;26.67;;;;;;;1.36;84.34;98146.72;5012873;28;20302;-69
2022/01/25 01:01:42;;;;;;;39.77;27.17;;;;;;;1.35;84.30;98155.44;5019007;28;20206;-70
2022/01/25 01:04:09;;;;;;;38.03;27.37;;;;;;;1.40;84.31;98169.19;5018761;28;20639;-69
2022/01/25 01:06:37;;;;;;;40.87;26.63;;;;;;;1.39;83.37;98162.25;5019236;28;20205;-71
2022/01/25 01:09:04;;;;;;;40.73;28.17;;;;;;;1.27;84.36;98160.91;5019740;28;20236;-70
2022/01/25 01:11:37;;;;;;;38.80;27.17;;;;;;;1.38;84.05;98156.19;5019600;28;20267;-70
2022/01/25 01:14:12;;;;;;;40.73;28.07;;;;;;;1.39;84.26;98159.63;5019000;28;20234;-70
2022/01/25 01:30:44;;;;;;;35.60;25.50;;;;;;;1.38;83.36;98171.81;5018290;28;20276;-69
2022/01/25 01:33:50;;;;;;;39.00;27.30;;;;;;;1.27;84.24;98168.72;5018768;28;20276;-70
2022/01/25 01:37:00;;;;;;;42.93;26.70;;;;;;;1.38;84.01;98171.00;5010998;28;20583;-69
2022/01/25 01:39:34;;;;;;;38.23;26.33;;;;;;;1.24;83.15;98184.44;5018306;28;20218;-70
2022/01/25 01:45:08;;;;;;;37.40;26.03;;;;;;;1.17;84.08;98179.50;4983450;28;20226;-70
2022/01/25 01:47:40;;;;;;;37.23;26.47;;;;;;;1.20;84.40;98179.41;5009798;28;20223;-70
2022/01/25 01:50:13;;;;;;;38.63;26.43;;;;;;;1.17;84.58;98180.31;5025507;28;20242;-70
2022/01/25 01:52:39;;;;;;;39.60;27.00;;;;;;;1.19;84.72;98169.88;5037928;28;20251;-70
2022/01/25 01:55:07;;;;;;;40.37;28.07;;;;;;;1.19;84.24;98181.16;5035309;28;20256;-71
2022/01/25 01:57:35;;;;;;;42.97;27.37;;;;;;;1.24;84.82;98186.22;5037017;28;20211;-70
2022/01/25 02:00:01;;;;;;;42.83;28.27;;;;;;;1.16;84.56;98183.00;5039676;28;20169;-70
2022/01/25 02:02:28;;;;;;;38.33;27.30;;;;;;;1.07;84.54;98178.06;5025843;28;20211;-70
2022/01/25 02:04:55;;;;;;;41.87;28.70;;;;;;;1.09;85.76;98184.09;5013014;28;20293;-70
2022/01/25 02:07:22;;;;;;;39.60;27.77;;;;;;;1.11;85.23;98172.72;5016827;28;20243;-70
2022/01/25 02:09:49;;;;;;;42.60;28.07;;;;;;;1.16;85.52;98172.56;5017512;28;20221;-70
2022/01/25 02:12:15;;;;;;;41.63;29.83;;;;;;;1.22;83.93;98164.56;5017500;28;20218;-71
2022/01/25 02:14:42;;;;;;;43.83;29.33;;;;;;;1.18;84.27;98168.16;5017007;28;20687;-70
2022/01/25 02:17:14;;;;;;;42.27;29.27;;;;;;;1.15;85.01;98163.91;5016603;28;20210;-69
2022/01/25 02:22:35;;;;;;;45.03;29.53;;;;;;;1.28;83.83;98164.34;5015951;28;20694;-69
2022/01/25 02:25:02;;;;;;;43.00;28.47;;;;;;;1.28;83.87;98164.34;5017195;28;20201;-70
2022/01/25 02:27:28;;;;;;;41.57;28.43;;;;;;;1.14;84.53;98166.53;5017308;28;20222;-70
2022/01/25 02:29:55;;;;;;;43.80;28.67;;;;;;;1.13;84.31;98168.31;5016993;28;20213;-70
2022/01/25 02:32:21;;;;;;;48.63;29.23;;;;;;;1.21;84.19;98160.22;5016970;28;20214;-70
2022/01/25 02:34:49;;;;;;;40.30;28.17;;;;;;;1.10;84.17;98164.97;5017136;28;20230;-69
2022/01/25 02:37:17;;;;;;;40.53;27.53;;;;;;;1.18;84.35;98157.72;5016397;28;20212;-70
2022/01/25 02:39:44;;;;;;;43.70;29.23;;;;;;;1.09;84.06;98152.81;5017006;28;20239;-70
2022/01/25 02:42:12;;;;;;;44.57;30.10;;;;;;;1.01;85.03;98155.66;5016720;28;20214;-70
2022/01/25 02:44:41;;;;;;;39.97;27.73;;;;;;;0.99;85.75;98158.31;5007826;28;20245;-70
2022/01/25 02:49:53;;;;;;;43.83;28.47;;;;;;;0.99;85.92;98163.50;5016660;28;20212;-69
2022/01/25 02:52:20;;;;;;;46.70;30.27;;;;;;;1.00;86.19;98157.41;5017484;28;20222;-69
2022/01/25 02:54:47;;;;;;;48.37;30.10;;;;;;;1.00;86.00;98154.81;5015937;28;20677;-70
2022/01/25 02:57:14;;;;;;;43.13;28.10;;;;;;;1.09;85.86;98151.06;5016842;28;20210;-70
2022/01/25 02:59:41;;;;;;;45.80;29.57;;;;;;;1.12;85.10;98165.75;5016415;28;20638;-69
2022/01/25 03:02:07;;;;;;;42.97;29.03;;;;;;;1.04;84.22;98157.31;5016505;28;20281;-69
2022/01/25 03:04:34;;;;;;;42.20;29.43;;;;;;;1.07;85.22;98154.59;5016614;28;20205;-69
2022/01/25 03:07:02;;;;;;;43.53;28.93;;;;;;;1.06;85.32;98156.38;5015374;28;20234;-70
2022/01/25 03:09:28;;;;;;;38.70;26.67;;;;;;;1.04;85.79;98145.16;5016212;28;20222;-69
2022/01/25 03:11:56;;;;;;;41.50;28.83;;;;;;;1.02;85.80;98151.31;5016454;28;20208;-70
2022/01/25 03:14:26;;;;;;;42.10;28.57;;;;;;;0.95;86.53;98146.31;5016142;28;20240;-70
2022/01/25 03:17:06;;;;;;;40.27;27.70;;;;;;;0.99;85.99;98147.88;5016467;28;20212;-69
2022/01/25 03:19:49;;;;;;;40.70;28.13;;;;;;;0.96;85.69;98145.38;5016474;28;20523;-70
2022/01/25 03:22:30;;;;;;;38.60;26.63;;;;;;;0.99;85.16;98147.88;5016496;28;20229;-69
2022/01/25 03:24:57;;;;;;;42.17;27.33;;;;;;;0.98;85.43;98154.00;5015937;28;20295;-70
2022/01/25 03:27:24;;;;;;;40.27;27.00;;;;;;;1.05;85.31;98151.22;5015716;28;20232;-70
2022/01/25 03:29:50;;;;;;;39.93;27.00;;;;;;;1.07;85.02;98146.78;5015609;28;20637;-70
2022/01/25 03:32:16;;;;;;;42.30;27.77;;;;;;;0.99;84.75;98147.88;5015539;28;20616;-69
2022/01/25 03:34:43;;;;;;;44.23;28.87;;;;;;;1.05;85.23;98151.22;5015646;28;20230;-70
2022/01/25 03:37:09;;;;;;;37.63;26.60;;;;;;;1.02;85.06;98148.72;5016041;28;20222;-71
2022/01/25 03:39:37;;;;;;;40.83;27.17;;;;;;;1.05;84.98;98153.81;5016238;28;20219;-70
2022/01/25 03:42:08;;;;;;;40.40;27.93;;;;;;;1.00;84.37;98153.94;5018564;28;20215;-70
2022/01/25 03:44:34;;;;;;;36.83;25.87;;;;;;;1.08;84.19;98159.78;5022603;28;20216;-71
2022/01/25 03:47:05;;;;;;;39.00;26.87;;;;;;;1.02;84.82;98157.38;5017843;28;20243;-69
2022/01/25 03:49:50;;;;;;;38.60;26.60;;;;;;;1.00;84.48;98151.34;5009677;28;20273;-71
2022/01/25 03:52:22;;;;;;;38.57;25.80;;;;;;;1.00;84.90;98160.00;5021553;28;20220;-69
2022/01/25 03:54:50;;;;;;;40.20;26.20;;;;;;;0.97;85.42;98154.91;5032039;28;20226;-71
2022/01/25 03:57:17;;;;;;;42.63;28.20;;;;;;;0.93;84.90;98153.28;5018378;28;20191;-70
2022/01/25 03:59:44;;;;;;;45.07;27.90;;;;;;;0.80;86.12;98153.72;5015570;28;20221;-69
2022/01/25 04:02:11;;;;;;;43.83;28.90;;;;;;;0.70;87.14;98154.91;5019848;28;20219;-69
2022/01/25 04:04:37;;;;;;;43.97;28.27;;;;;;;0.63;87.36;98151.63;5014457;28;20208;-69
2022/01/25 04:07:08;;;;;;;42.70;28.10;;;;;;;0.74;87.79;98146.97;5012154;28;20244;-71
2022/01/25 04:09:35;;;;;;;37.33;25.70;;;;;;;0.81;86.86;98148.47;5019906;28;20305;-69
2022/01/25 04:12:04;;;;;;;41.93;26.63;;;;;;;0.81;85.86;98140.66;5019858;28;20205;-69
2022/01/25 04:14:30;;;;;;;44.57;28.93;;;;;;;0.74;86.84;98144.34;5006399;28;20744;-69
2022/01/25 04:17:01;;;;;;;40.37;27.53;;;;;;;0.80;86.41;98138.94;5019535;28;20223;-69
2022/01/25 04:19:33;;;;;;;38.60;26.60;;;;;;;0.87;86.00;98137.88;5006522;28;20514;-69
2022/01/25 04:25:04;;;;;;;42.00;27.10;;;;;;;0.91;86.67;98138.63;5019172;28;20545;-67
2022/01/25 04:27:33;;;;;;;39.43;26.67;;;;;;;0.90;85.77;98135.16;5019123;28;20226;-69
2022/01/25 04:30:00;;;;;;;42.03;28.43;;;;;;;0.97;86.50;98134.06;5006453;28;20213;-68
2022/01/25 04:32:34;;;;;;;42.00;28.83;;;;;;;0.99;86.25;98137.47;5018786;28;20222;-70
2022/01/25 04:35:13;;;;;;;41.90;29.20;;;;;;;0.90;86.06;98136.91;5018762;28;20248;-70
2022/01/25 04:51:40;;;;;;;42.73;29.23;;;;;;;0.93;86.60;98131.59;5019099;28;20548;-70
2022/01/25 04:54:12;;;;;;;46.77;30.03;;;;;;;0.81;87.52;98119.84;5018607;28;20246;-69
2022/01/25 04:56:45;;;;;;;48.20;29.67;;;;;;;0.81;87.73;98127.66;5018519;28;20258;-70
2022/01/25 04:59:20;;;;;;;43.87;28.87;;;;;;;0.82;87.28;98121.53;5019642;28;20201;-71
2022/01/25 05:01:48;;;;;;;46.77;30.23;;;;;;;0.80;87.79;98114.66;5020011;28;20234;-72
2022/01/25 05:04:21;;;;;;;43.77;29.47;;;;;;;0.89;87.01;98120.44;5040788;28;20180;-70
2022/01/25 05:06:50;;;;;;;47.37;29.87;;;;;;;0.86;87.42;98125.72;5040329;28;20194;-70
2022/01/25 05:09:19;;;;;;;44.77;29.60;;;;;;;0.88;87.26;98117.88;5040955;28;20182;-70
2022/01/25 05:11:48;;;;;;;43.57;29.70;;;;;;;0.90;86.77;98116.06;5020184;28;20293;-69
2022/01/25 05:14:21;;;;;;;41.80;28.67;;;;;;;0.90;87.35;98122.13;5015126;28;20540;-70
2022/01/25 05:16:54;;;;;;;45.87;29.90;;;;;;;0.82;87.16;98129.34;5019762;28;20213;-70
2022/01/25 05:22:06;;;;;;;43.40;28.00;;;;;;;0.73;86.90;98129.63;5031924;28;20201;-69
2022/01/25 05:24:33;;;;;;;43.67;27.80;;;;;;;0.73;86.70;98129.63;5033797;28;20222;-70
2022/01/25 05:27:00;;;;;;;39.73;27.00;;;;;;;0.78;87.36;98130.31;5033805;28;20216;-69
2022/01/25 05:29:28;;;;;;;42.30;27.50;;;;;;;0.94;86.58;98135.91;5019357;28;20206;-69
2022/01/25 05:31:54;;;;;;;45.13;28.40;;;;;;;0.97;85.84;98134.06;5020869;28;20212;-68
2022/01/25 05:34:21;;;;;;;45.53;28.53;;;;;;;1.04;86.15;98133.88;5019584;28;20205;-69
2022/01/25 05:36:47;;;;;;;46.30;29.40;;;;;;;1.05;85.58;98141.66;5005823;28;20232;-69
2022/01/25 05:39:18;;;;;;;43.17;28.50;;;;;;;1.10;85.48;98131.09;5018256;28;20229;-70
2022/01/25 05:41:53;;;;;;;43.97;29.47;;;;;;;1.07;85.13;98128.56;5022695;28;20201;-70
2022/01/25 05:44:26;;;;;;;41.70;28.10;;;;;;;0.97;86.13;98134.06;5009889;28;20203;-70
2022/01/25 05:47:05;;;;;;;45.13;29.37;;;;;;;0.92;85.78;98143.75;5013429;28;20244;-70
2022/01/25 05:49:32;;;;;;;47.83;30.70;;;;;;;1.06;85.86;98132.09;5021617;28;20263;-69
2022/01/25 05:51:59;;;;;;;45.50;29.37;;;;;;;0.96;86.40;98141.91;5017328;28;20206;-70
2022/01/25 05:54:25;;;;;;;44.03;29.10;;;;;;;1.01;86.13;98137.44;5013458;28;20716;-70
2022/01/25 05:56:52;;;;;;;45.83;28.97;;;;;;;1.08;84.58;98138.09;5018524;28;20250;-69
2022/01/25 05:59:18;;;;;;;45.33;29.47;;;;;;;0.98;86.01;98145.34;5008241;28;20293;-69
2022/01/25 06:01:46;;;;;;;44.10;28.47;;;;;;;0.98;85.37;98146.19;5017890;28;20295;-69
2022/01/25 06:04:13;;;;;;;45.27;30.03;;;;;;;0.96;86.08;98145.38;5017890;28;20284;-69
2022/01/25 06:06:40;;;;;;;45.93;29.93;;;;;;;0.97;85.62;98144.50;5016847;28;20202;-69
2022/01/25 06:09:06;;;;;;;41.63;27.13;;;;;;;0.97;86.05;98148.84;5017135;28;20202;-68
2022/01/25 06:11:33;;;;;;;41.93;27.60;;;;;;;1.00;85.59;98144.38;5017541;28;20556;-69
2022/01/25 06:14:00;;;;;;;42.57;28.17;;;;;;;0.99;85.98;98142.69;5017283;28;20298;-69
2022/01/25 06:16:28;;;;;;;42.70;28.57;;;;;;;0.88;86.39;98144.78;5017091;28;20234;-70
2022/01/25 06:18:55;;;;;;;45.50;29.03;;;;;;;0.93;86.48;98142.88;5018237;28;20231;-69
2022/01/25 06:21:22;;;;;;;41.70;27.63;;;;;;;1.00;85.95;98133.97;5017944;28;20539;-70
2022/01/25 06:23:49;;;;;;;42.27;28.47;;;;;;;0.98;85.57;98135.78;5014765;28;20214;-68
2022/01/25 06:26:16;;;;;;;41.23;27.90;;;;;;;1.02;85.90;98140.91;5007366;28;20208;-69
2022/01/25 06:28:42;;;;;;;42.50;27.37;;;;;;;0.98;85.79;98142.75;5031050;28;20221;-70
2022/01/25 06:31:09;;;;;;;44.27;29.03;;;;;;;0.92;86.26;98141.16;5036396;28;20211;-70
2022/01/25 06:33:37;;;;;;;39.73;26.67;;;;;;;0.95;86.71;98151.50;5033594;28;20202;-70
2022/01/25 06:36:04;;;;;;;40.23;27.53;;;;;;;0.95;86.56;98141.09;5027686;28;20241;-69
2022/01/25 06:38:32;;;;;;;41.63;26.37;;;;;;;1.08;85.47;98151.09;5037708;28;20192;-70
2022/01/25 06:40:59;;;;;;;44.70;29.67;;;;;;;1.11;85.26;98145.78;5021950;28;20222;-69
2022/01/25 06:43:25;;;;;;;39.03;26.33;;;;;;;1.04;85.52;98144.28;5017609;28;20210;-69
2022/01/25 06:45:56;;;;;;;39.57;27.37;;;;;;;0.97;86.40;98154.91;5017739;28;20217;-70
2022/01/25 06:48:23;;;;;;;39.10;25.93;;;;;;;0.99;85.57;98147.88;5017159;28;20679;-70
2022/01/25 06:50:50;;;;;;;45.33;28.97;;;;;;;1.00;85.66;98152.19;5006380;28;20232;-70
2022/01/25 06:53:17;;;;;;;42.07;27.93;;;;;;;1.03;85.66;98159.06;5012376;28;20213;-69
2022/01/25 06:55:45;;;;;;;45.63;28.63;;;;;;;1.09;85.21;98158.03;5010019;28;20235;-69
2022/01/25 06:58:11;;;;;;;43.33;29.00;;;;;;;1.07;85.56;98165.03;5016498;28;20215;-69
2022/01/25 07:00:38;;;;;;;45.13;29.77;;;;;;;1.12;84.84;98155.31;5016667;28;20209;-68
2022/01/25 07:03:05;;;;;;;44.73;29.10;;;;;;;1.05;85.59;98164.22;5016970;28;20224;-70
2022/01/25 07:05:32;;;;;;;46.83;29.43;;;;;;;1.03;85.94;98156.47;5017571;28;20200;-69
2022/01/25 07:07:59;;;;;;;48.03;29.77;;;;;;;1.04;85.72;98165.13;5010618;28;20206;-68
2022/01/25 07:10:26;;;;;;;51.27;32.83;;;;;;;1.03;85.58;98173.88;5009604;28;20221;-69
2022/01/25 07:12:53;;;;;;;49.47;30.07;;;;;;;0.98;84.96;98172.25;5016471;28;20216;-69
2022/01/25 07:15:20;;;;;;;47.80;29.63;;;;;;;0.95;84.90;98174.94;5016663;28;20221;-69
2022/01/25 07:17:47;;;;;;;43.77;28.70;;;;;;;0.82;85.54;98171.00;5016111;28;20230;-70
2022/01/25 07:20:13;;;;;;;40.43;27.90;;;;;;;0.78;85.88;98166.78;5016360;28;20541;-69
2022/01/25 07:22:41;;;;;;;46.93;30.03;;;;;;;0.75;86.63;98169.47;5016500;28;20206;-69
2022/01/25 07:25:10;;;;;;;43.43;28.77;;;;;;;0.59;86.94;98173.44;5017458;28;20234;-69
2022/01/25 07:27:36;;;;;;;41.50;27.57;;;;;;;0.65;87.76;98169.78;5018420;28;20653;-68
2022/01/25 07:30:07;;;;;;;42.07;27.23;;;;;;;0.66;87.43;98169.75;5016963;28;20221;-69
2022/01/25 07:32:33;;;;;;;41.03;26.83;;;;;;;0.73;87.14;98176.50;5016606;28;20208;-69
2022/01/25 07:35:00;;;;;;;41.50;26.93;;;;;;;0.75;86.69;98173.81;5016266;28;20235;-69
2022/01/25 07:37:26;;;;;;;40.97;27.17;;;;;;;0.76;86.44;98180.75;5017641;28;20526;-70
2022/01/25 07:39:53;;;;;;;42.07;27.10;;;;;;;0.77;86.62;98174.66;5017648;28;20242;-68
2022/01/25 07:42:19;;;;;;;43.53;27.83;;;;;;;0.80;86.61;98175.41;5016613;28;20206;-69
2022/01/25 07:44:46;;;;;;;40.83;27.10;;;;;;;0.77;86.67;98172.91;5016279;28;20220;-68
2022/01/25 07:47:13;;;;;;;38.70;26.40;;;;;;;0.82;86.86;98181.41;5015771;28;20517;-67
2022/01/25 07:49:40;;;;;;;41.77;26.87;;;;;;;0.82;86.74;98181.41;5016091;28;20223;-68
2022/01/25 07:52:07;;;;;;;41.67;27.90;;;;;;;0.81;87.13;98181.47;5015999;28;20210;-69
2022/01/25 07:54:34;;;;;;;46.43;28.80;;;;;;;0.82;87.00;98190.97;5015712;28;20243;-69
2022/01/25 07:57:01;;;;;;;42.47;28.43;;;;;;;0.98;86.13;98200.03;5016683;28;20669;-69
2022/01/25 07:59:27;;;;;;;42.33;27.17;;;;;;;1.00;86.12;98198.22;5016112;28;20541;-69
2022/01/25 08:01:54;;;;;;;45.13;28.10;;;;;;;1.02;86.33;98195.59;5016110;28;20634;-69
2022/01/25 08:04:22;;;;;;;44.73;28.93;;;;;;;0.95;85.39;98187.97;5016173;28;20201;-69
2022/01/25 08:06:48;;;;;;;40.93;26.77;;;;;;;1.05;86.21;98190.28;5015390;28;20217;-69
2022/01/25 08:09:15;;;;;;;44.43;28.73;;;;;;;1.22;84.72;98193.22;5016277;28;20213;-70
2022/01/25 08:11:42;;;;;;;43.60;28.03;;;;;;;1.27;84.42;98188.72;5006425;28;20529;-69
2022/01/25 08:14:17;;;;;;;42.63;28.40;;;;;;;1.20;84.77;98192.44;5013063;28;20241;-69
2022/01/25 08:16:45;;;;;;;42.07;27.73;;;;;;;1.15;84.95;98191.69;5016014;28;20666;-69
2022/01/25 08:19:12;;;;;;;41.10;27.33;;;;;;;1.29;83.97;98192.13;5016542;28;20211;-69
2022/01/25 08:21:41;;;;;;;42.57;28.47;;;;;;;1.22;83.52;98193.22;5013278;28;20548;-69
2022/01/25 08:24:10;;;;;;;42.30;27.37;;;;;;;1.28;84.90;98186.06;5006664;28;20204;-69
2022/01/25 08:26:37;;;;;;;44.47;28.77;;;;;;;1.24;84.41;98178.41;5002220;28;20212;-69
2022/01/25 08:29:03;;;;;;;44.40;27.80;;;;;;;1.30;84.10;98193.84;5032849;28;20214;-70
2022/01/25 08:31:30;;;;;;;46.27;29.93;;;;;;;1.28;85.35;98186.06;5021559;28;20207;-69
2022/01/25 08:33:57;;;;;;;45.13;29.70;;;;;;;1.40;85.03;98195.25;5015402;28;20218;-69
2022/01/25 08:36:23;;;;;;;49.77;31.50;;;;;;;1.32;85.23;98190.28;5009408;28;20235;-69
2022/01/25 08:38:51;;;;;;;49.37;29.23;;;;;;;1.39;84.99;98198.75;4997143;28;20518;-68
2022/01/25 08:41:18;;;;;;;53.07;31.00;;;;;;;1.58;83.07;98192.03;5008972;28;20221;-70
2022/01/25 08:43:45;;;;;;;51.83;31.57;;;;;;;1.46;83.54;98190.69;5016144;28;20211;-70
2022/01/25 08:46:12;;;;;;;49.77;29.87;;;;;;;1.63;83.85;98184.91;5016302;28;20209;-69
2022/01/25 08:48:38;;;;;;;52.97;31.80;;;;;;;1.71;83.38;98185.50;5019308;28;20512;-69
2022/01/25 08:51:06;;;;;;;48.70;30.13;;;;;;;1.69;83.13;98189.06;5019252;28;20216;-69
2022/01/25 08:53:32;;;;;;;48.63;30.67;;;;;;;1.66;83.85;98187.44;5019846;28;20226;-69
2022/01/25 08:56:00;;;;;;;52.80;31.87;;;;;;;1.73;83.48;98191.53;5018465;28;20726;-69
2022/01/25 08:58:27;;;;;;;47.83;30.20;;;;;;;1.67;84.80;98189.13;5019232;28;20209;-69
2022/01/25 09:00:53;;;;;;;46.87;29.33;;;;;;;1.76;84.96;98193.19;5006133;28;20204;-69
2022/01/25 09:03:20;;;;;;;54.07;31.43;;;;;;;1.82;84.70;98199.03;5019428;28;20213;-69
2022/01/25 09:05:47;;;;;;;46.33;29.43;;;;;;;1.81;84.83;98199.94;5018459;28;20523;-69
2022/01/25 09:08:19;;;;;;;52.53;30.93;;;;;;;1.85;83.66;98201.53;5019200;28;20548;-68
2022/01/25 09:10:45;;;;;;;53.40;31.13;;;;;;;1.95;84.65;98196.84;5018834;28;20580;-69
2022/01/25 09:13:13;;;;;;;47.03;29.63;;;;;;;1.92;82.62;98202.19;5019377;28;20215;-69
2022/01/25 09:15:39;;;;;;;48.90;30.33;;;;;;;1.97;82.60;98195.06;5019790;28;20212;-69
2022/01/25 09:18:06;;;;;;;46.93;30.07;;;;;;;2.05;82.97;98200.03;5018512;28;20238;-68
2022/01/25 09:20:32;;;;;;;44.53;29.70;;;;;;;2.17;82.68;98199.56;5018434;28;20207;-68
2022/01/25 09:22:59;;;;;;;43.53;27.90;;;;;;;2.30;81.92;98206.09;5018793;28;20637;-69
2022/01/25 09:25:25;;;;;;;43.40;28.03;;;;;;;2.28;80.03;98202.66;5018824;28;20226;-68
2022/01/25 09:27:52;;;;;;;69.73;34.00;;;;;;;2.31;80.49;98202.56;5018603;28;20214;-69
2022/01/25 09:30:20;;;;;;;53.90;28.90;;;;;;;2.30;79.36;98209.53;5009356;28;20203;-69
2022/01/25 09:32:46;;;;;;;42.33;28.60;;;;;;;2.49;79.16;98207.13;5039917;28;20196;-70
2022/01/25 09:35:13;;;;;;;45.97;28.00;;;;;;;2.55;79.49;98199.06;5038626;28;20199;-70
2022/01/25 09:37:39;;;;;;;43.40;27.97;;;;;;;2.79;78.50;98203.41;5021572;28;20582;-69
2022/01/25 09:40:07;;;;;;;40.77;27.33;;;;;;;2.99;76.38;98198.25;5020410;28;20645;-70
2022/01/25 09:42:34;;;;;;;47.27;30.03;;;;;;;3.34;75.79;98212.56;5019867;28;20218;-69
2022/01/25 09:45:00;;;;;;;45.10;29.63;;;;;;;3.47;76.07;98210.34;5017918;28;20215;-69
2022/01/25 09:47:28;;;;;;;48.80;29.20;;;;;;;3.54;76.45;98210.94;5018084;28;20220;-70
2022/01/25 09:49:55;;;;;;;46.63;29.13;;;;;;;3.72;74.49;98213.63;5017836;28;20632;-69
2022/01/25 09:52:22;;;;;;;45.70;29.03;;;;;;;3.98;74.18;98208.19;5017596;28;20684;-69
2022/01/25 09:54:54;;;;;;;44.93;28.87;;;;;;;4.20;71.01;98213.34;5017518;28;20655;-68
2022/01/25 09:57:21;;;;;;;43.00;27.83;;;;;;;4.68;70.29;98210.34;5017455;28;20691;-69
2022/01/25 09:59:48;;;;;;;41.27;27.20;;;;;;;5.50;69.05;98212.59;5016908;28;20209;-69
2022/01/25 10:02:42;;;;;;;39.33;27.67;;;;;;;5.99;65.03;98204.97;5017737;28;20204;-68
2022/01/25 10:05:23;;;;;;;39.20;25.93;;;;;;;6.36;63.37;98212.69;5018592;28;20219;-68
2022/01/25 10:07:56;;;;;;;39.87;27.63;;;;;;;6.90;62.45;98205.47;5017660;28;20200;-69
2022/01/25 10:10:24;;;;;;;40.67;27.33;;;;;;;7.05;60.21;98209.06;5018082;28;20204;-69
2022/01/25 10:12:51;;;;;;;42.17;29.13;;;;;;;7.54;59.53;98207.19;5011406;28;20212;-69
2022/01/25 10:15:17;;;;;;;39.30;26.83;;;;;;;7.59;58.85;98206.00;5010232;28;20208;-68
2022/01/25 10:17:45;;;;;;;39.20;26.80;;;;;;;8.23;56.35;98210.19;5016819;28;20228;-67
2022/01/25 10:20:26;;;;;;;37.47;26.33;;;;;;;8.02;56.26;98204.38;5017043;28;20538;-69
2022/01/25 10:22:52;;;;;;;37.20;26.33;;;;;;;8.51;54.40;98210.28;4997883;28;20200;-67
2022/01/25 10:25:29;;;;;;;36.50;26.37;;;;;;;8.22;57.11;98211.16;5013084;28;20545;-67
2022/01/25 10:28:03;;;;;;;37.73;26.57;;;;;;;8.50;53.46;98204.16;5017825;28;20208;-68
2022/01/25 10:30:39;;;;;;;37.53;26.67;;;;;;;9.06;51.97;98205.13;5017395;28;20280;-68
2022/01/25 10:33:19;;;;;;;35.70;26.87;;;;;;;9.34;53.05;98214.78;5017309;28;20219;-67
2022/01/25 10:35:46;;;;;;;38.70;28.30;;;;;;;9.19;51.92;98205.19;5017782;28;20212;-67
2022/01/25 10:38:23;;;;;;;33.97;26.50;;;;;;;10.13;50.34;98193.75;5016817;28;20231;-73
2022/01/25 10:40:59;;;;;;;35.07;26.70;;;;;;;9.79;50.67;98190.69;5017271;28;20207;-75
2022/01/25 10:43:26;;;;;;;36.40;28.30;;;;;;;10.26;49.14;98190.22;5016911;28;20212;-76
2022/01/25 10:46:11;;;;;;;36.80;26.87;;;;;;;10.55;48.36;98184.75;5017667;28;20219;-77
2022/01/25 10:48:41;;;;;;;34.23;26.90;;;;;;;10.83;48.95;98190.69;5018357;28;20204;-77
2022/01/25 10:51:10;;;;;;;35.13;27.83;;;;;;;10.19;48.54;98185.44;5016915;28;20651;-67
2022/01/25 10:53:37;;;;;;;32.95;26.38;;;;;;;10.81;47.69;98181.97;5011378;28;20210;-68
2022/01/25 10:56:04;;;;;;;34.78;26.77;;;;;;;10.02;50.28;98176.78;5012404;28;20236;-72
2022/01/25 10:58:31;;;;;;;31.58;26.63;;;;;;;10.49;49.38;98178.06;5017150;28;20232;-75
2022/01/25 11:00:59;;;;;;;34.67;27.45;;;;;;;10.14;49.56;98174.28;5017615;28;20222;-77
2022/01/25 11:03:28;;;;;;;32.58;27.08;;;;;;;10.65;49.00;98170.78;5017163;28;20235;-74
2022/01/25 11:05:57;;;;;;;31.73;26.63;;;;;;;10.12;49.34;98171.75;5016636;28;20252;-76
2022/01/25 11:08:25;;;;;;;34.90;25.65;;;;;;;11.08;46.95;98168.63;5010811;28;20197;-74
2022/01/25 11:10:56;;;;;;;31.63;26.10;;;;;;;11.63;45.12;98165.47;4998971;28;20209;-76
2022/01/25 11:13:35;;;;;;;32.38;27.05;;;;;;;11.29;45.66;98161.78;5017134;28;20204;-76
2022/01/25 11:16:03;;;;;;;30.55;25.58;;;;;;;10.66;48.38;98164.53;5016088;28;20204;-73
2022/01/25 11:18:31;;;;;;;32.92;26.88;;;;;;;10.64;48.47;98157.66;5020482;28;20232;-73
2022/01/25 11:21:00;;;;;;;33.25;27.60;;;;;;;10.98;46.44;98160.47;5015440;28;20299;-77
2022/01/25 11:23:27;;;;;;;32.03;26.20;;;;;;;10.96;46.24;98154.44;5020840;28;20217;-72
2022/01/25 11:25:55;;;;;;;36.72;27.45;;;;;;;10.79;47.78;98157.44;5022733;28;20204;-72
2022/01/25 11:28:22;;;;;;;35.00;25.65;;;;;;;9.85;48.64;98148.00;5028447;28;20232;-73
2022/01/25 11:30:49;;;;;;;34.00;27.30;;;;;;;10.72;47.26;98147.38;5018610;28;20209;-72
2022/01/25 11:33:16;;;;;;;35.23;27.27;;;;;;;10.17;49.34;98143.22;5006573;28;20205;-69
2022/01/25 11:35:43;;;;;;;34.77;26.97;;;;;;;10.77;47.97;98150.56;5026587;28;20208;-68
2022/01/25 11:38:10;;;;;;;35.27;26.43;;;;;;;10.36;48.56;98148.13;5035038;28;20238;-76
2022/01/25 11:40:40;;;;;;;35.40;26.87;;;;;;;9.68;50.22;98148.28;5018782;28;20205;-74
2022/01/25 11:43:09;;;;;;;32.63;26.47;;;;;;;9.50;51.48;98152.13;5018202;28;20246;-72
2022/01/25 11:45:37;;;;;;;33.17;25.90;;;;;;;8.69;52.89;98142.38;5026687;28;20192;-73
2022/01/25 11:48:04;;;;;;;36.00;26.10;;;;;;;8.82;52.59;98140.69;5037557;28;20204;-73
2022/01/25 11:50:32;;;;;;;38.23;26.77;;;;;;;8.78;52.33;98142.69;5038522;28;20239;-69
2022/01/25 11:53:05;;;;;;;38.63;26.93;;;;;;;8.00;56.66;98138.63;5038444;28;20184;-68
2022/01/25 11:55:35;;;;;;;41.20;27.63;;;;;;;7.85;56.26;98130.78;5038583;28;20283;-68
2022/01/25 11:58:05;;;;;;;34.80;25.63;;;;;;;7.86;56.30;98133.34;5038669;28;20212;-67
2022/01/25 12:00:44;;;;;;;33.30;25.50;;;;;;;7.96;54.80;98126.56;5038607;28;20177;-68
2022/01/25 12:03:26;;;;;;;33.83;24.40;;;;;;;8.04;55.79;98127.91;5038258;28;20173;-67
2022/01/25 12:05:59;;;;;;;35.67;26.13;;;;;;;8.13;57.13;98127.34;5035628;28;20236;-67
2022/01/25 12:08:39;;;;;;;37.80;25.37;;;;;;;8.10;56.77;98128.38;5018113;28;20174;-67
2022/01/25 12:11:33;;;;;;;37.47;25.50;;;;;;;7.84;58.18;98115.91;5017854;28;20185;-69
2022/01/25 12:14:24;;;;;;;35.60;25.17;;;;;;;7.92;56.67;98109.25;5012296;28;20248;-68
2022/01/25 12:16:53;;;;;;;37.17;26.40;;;;;;;7.92;56.54;98111.88;5016211;28;20204;-68
2022/01/25 12:19:21;;;;;;;36.83;25.37;;;;;;;7.69;57.88;98101.84;5015975;28;20226;-68
2022/01/25 12:22:14;;;;;;;35.60;25.20;;;;;;;7.88;56.94;98101.63;5016528;28;20527;-69
2022/01/25 12:25:06;;;;;;;29.47;22.97;;;;;;;8.30;54.64;98101.69;5010330;28;20545;-68
2022/01/25 12:27:48;;;;;;;28.03;21.67;;;;;;;7.93;55.00;98100.41;5020420;28;20200;-67
2022/01/25 12:30:19;;;;;;;32.80;23.37;;;;;;;7.99;54.93;98093.94;5017018;28;20603;-67
2022/01/25 12:32:58;;;;;;;31.17;22.80;;;;;;;7.93;54.61;98092.53;5019544;28;20540;-68
2022/01/25 12:35:49;;;;;;;32.93;24.20;;;;;;;8.06;54.88;98089.13;5015032;28;20205;-68
2022/01/25 12:38:19;;;;;;;33.80;22.90;;;;;;;7.92;54.57;98093.44;5004947;28;20290;-67